Terminal Aerodrome Forecast
Issued by NWS Melbourne, FL

Home | Current Version | Previous Version | Text Only | Print | Product List | Glossary On
Versions: 1 2 3 4 5 6 7 8 9 10 11 12 13
838
FTUS42 KMLB 231723
TAFMLB
TAF
KMLB 231723Z 2318/2418 08010KT P6SM VCSH SCT040
     FM232000 10011KT P6SM FEW040 SCT250
     FM240100 VRB03KT P6SM SCT250=

USA.gov is the U.S. government's official web portal to all federal, state and local government web resources and services.